石垣島の過去48時間の天気

石垣島 (Ishigaki jima)

現在時刻: 2/1 08:35 JST (1/31 23:35 UTC) 以下の時間は現地時間です。

過去48時間のMETAR気象情報
時間 風向 風速(m/s) 視程 気温(℃) 湿度(%) 気圧(hPa) 天気現象
1 08:00 2 10km以上 19 78 1018 周辺でしゅう雨
1 07:00 南南東 3 10km以上 20 68 1017
1 06:00 南南東 3 10km以上 20 73 1017
1 05:00 3 10km以上 19 73 1017
1 04:00 3 10km以上 20 68 1016
1 03:00 3 10km以上 19 68 1017
1 02:00 4 10km以上 19 68 1017
1 01:00 3 10km以上 19 68 1017
1 00:00 南南東 4 10km以上 19 68 1018
31 23:00 南南東 5 10km以上 19 68 1018
31 22:00 3 10km以上 18 68 1018
31 21:00 南南東 4 10km以上 19 64 1018
31 20:00 南南東 3 10km以上 19 64 1018
31 19:00 南南東 3 10km以上 19 68 1017
31 18:00 南南東 4 10km以上 19 64 1017
31 17:00 南東 4 10km以上 20 60 1017
31 16:00 5 10km以上 21 53 1017
31 15:00 南南東 5 10km以上 22 57 1017
31 14:00 南南東 5 10km以上 21 56 1018
31 13:00 東南東 5 10km以上 20 60 1019
31 12:00 南東 5 10km以上 20 56 1020
31 11:00 東南東 5 10km以上 20 56 1021
31 10:00 4 10km以上 19 56 1022
31 09:00 東南東 3 10km以上 18 64 1022
31 08:00 東北東 2 10km以上 12 88 1021
31 07:00 不定 1 10km以上 11 82 1021
31 06:00 不定 1 10km以上 12 77 1020
31 05:00 北東 3 10km以上 13 77 1020
31 04:00 東北東 4 10km以上 14 72 1020
31 03:00 東北東 4 10km以上 14 72 1021
31 02:00 東北東 4 10km以上 13 72 1021
31 01:00 東北東 4 10km以上 15 67 1022
31 00:00 東北東 4 10km以上 15 67 1022
30 23:00 東北東 6 10km以上 15 63 1022
30 22:00 北東 6 10km以上 14 67 1022
30 21:00 北東 6 10km以上 14 67 1022
30 20:00 3 10km以上 13 72 1022
30 19:00 北北東 6 10km以上 14 67 1022
30 18:00 北北東 5 10km以上 15 63 1021
30 17:00 北北東 6 10km以上 17 59 1021
30 16:00 北東 7 10km以上 16 59 1021
30 15:00 北東 7 10km以上 18 49 1021
30 14:00 北北東 6 10km以上 17 55 1022
30 13:00 北東 7 10km以上 17 52 1023
30 12:00 北東 6 10km以上 18 52 1024
30 11:00 北北東 7 10km以上 15 55 1025
30 10:00 北北東 6 10km以上 15 59 1025
30 09:00 4 10km以上 14 63 1025
ROIG 312300Z 19003KT 9999 VCSH FEW034 BKN050 19/15 Q1018
ROIG 312200Z AUTO 16005KT 9999 FEW033 SCT043 BKN048 20/14 Q1017
ROIG 312100Z AUTO 16005KT 120V200 9999 FEW033 BKN034 BKN042 20/15 Q1017
ROIG 312000Z AUTO 18005KT 9999 FEW031 SCT047 BKN050 19/14 Q1017
ROIG 311900Z AUTO 17006KT 9999 FEW035 BKN047 OVC050 20/14 Q1016
ROIG 311800Z AUTO 18006KT 9999 FEW040 BKN047 19/13 Q1017
ROIG 311700Z AUTO 19008KT 9999 SCT036 BKN038 BKN042 19/13 Q1017
ROIG 311600Z AUTO 18006KT 9999 SCT035 BKN040 BKN044 19/13 Q1017
ROIG 311500Z AUTO 16007KT 9999 FEW036 BKN042 19/13 Q1018
ROIG 311400Z AUTO 15009KT 9999 FEW037 BKN042 19/13 Q1018
ROIG 311300Z AUTO 17006KT 9999 BKN042 18/12 Q1018
ROIG 311200Z AUTO 16008KT 120V210 9999 SCT038 BKN040 19/12 Q1018
ROIG 311100Z 16006KT 120V200 9999 BKN038 19/12 Q1018
ROIG 311000Z 15005KT 9999 BKN037 19/13 Q1017
ROIG 310900Z 16007KT 120V280 9999 BKN036 19/12 Q1017
ROIG 310800Z 14008KT 9999 BKN035 20/12 Q1017
ROIG 310700Z 18010KT 150V240 9999 BKN034 21/11 Q1017
ROIG 310600Z 16010KT 130V190 9999 BKN034 22/13 Q1017
ROIG 310500Z 15009KT 9999 SCT034 21/12 Q1018
ROIG 310400Z 12010KT 9999 BKN033 20/12 Q1019
ROIG 310300Z 13010KT 9999 FEW033 20/11 Q1020
ROIG 310200Z 11009KT 9999 SCT033 20/11 Q1021
ROIG 310100Z 10007KT 070V140 9999 SCT033 19/10 Q1022
ROIG 310000Z 11006KT 9999 SCT032 18/11 Q1022
ROIG 302300Z 07003KT 040V200 9999 FEW032 12/10 Q1021
ROIG 302200Z AUTO VRB01KT 9999 NCD 11/08 Q1021
ROIG 302100Z AUTO VRB02KT 9999 FEW034 12/08 Q1020
ROIG 302000Z AUTO 05006KT 9999 FEW034 13/09 Q1020
ROIG 301900Z AUTO 06008KT 9999 FEW034 14/09 Q1020
ROIG 301800Z AUTO 07008KT 9999 FEW033 14/09 Q1021
ROIG 301700Z AUTO 06007KT 9999 FEW036 13/08 Q1021
ROIG 301600Z AUTO 07007KT 9999 FEW036 15/09 Q1022
ROIG 301500Z AUTO 06008KT 9999 FEW034 15/09 Q1022
ROIG 301400Z AUTO 06011KT 9999 SCT035 15/08 Q1022
ROIG 301300Z AUTO 05011KT 9999 FEW038 14/08 Q1022
ROIG 301200Z AUTO 04011KT 9999 SCT038 14/08 Q1022
ROIG 301100Z 36006KT 9999 SCT036 13/08 Q1022
ROIG 301000Z 03011KT 9999 SCT035 14/08 Q1022
ROIG 300900Z 03010KT 9999 SCT035 15/08 Q1021
ROIG 300800Z 03011KT 9999 SCT033 17/09 Q1021
ROIG 300700Z 05014KT 9999 SCT033 16/08 Q1021
ROIG 300600Z 04013KT 9999 FEW037 18/07 Q1021
ROIG 300500Z 03012KT 360V060 9999 SCT037 17/08 Q1022
ROIG 300400Z 04014KT 9999 SCT038 17/07 Q1023
ROIG 300300Z 04012KT 9999 SCT040 18/08 Q1024
ROIG 300200Z 02013KT 9999 BKN037 15/06 Q1025
ROIG 300100Z 02011KT 9999 SCT042 15/07 Q1025
ROIG 300000Z 01007KT 9999 FEW044 14/07 Q1025